Terminal Aerodrome Forecast
Issued by NWS Cleveland, OH

Home | Current Version | Previous Version | Text Only | Print | Product List | Glossary On
Versions: 1 2 3 4 5 6 7 8 9 10 11 12 13 14 15 16 17 18 19 20 21 22 23 24 25 26
000
FTUS41 KCLE 272300
TAFYNG
TAF
KYNG 272339Z 2800/2824 34010KT 5SM -SN BKN015 OVC025
      TEMPO 2800/2802 6SM -SN SCT015 OVC025
     FM280200 34006KT P6SM OVC025
     FM280800 32005KT 6SM BR SCT025
     FM281400 29004KT P6SM BKN025
     FM281700 VRB03KT P6SM SCT250=

USA.gov is the U.S. government's official web portal to all federal, state and local government web resources and services.